Main page
METAR-TAF:

METAR-TAF

Airports :

Umeå Airport

Umeå, Sweden

latitude: 63-48N, longitude: 020-17E, elevation: 7 m

Current weather observation

The report was made 37 minutes ago, at 03:20 UTC
Wind 23 kt from the South with gusts up to 34 kt
Temperature 0°C
Humidity 100%
Pressure 1000 hPa
Visibility: 0900 m
snow

METAR: ESNU 110320Z 18023G34KT 0900 R14/P1500N R32/1300VP1500N SN VV006 M00/M00 Q1000 R14/71//50

Time: 04:57 (03:57 UTC)

Forecast

The report was made 1 hour and 27 minutes ago, at 02:30 UTC
Forecast valid from 11 at 03 UTC to 11 at 12 UTC
Wind 20 kt from the South with gusts up to 35 kt
Visibility: 5000 m
Broken clouds at a height of 1500 ft
light snow
Temporary
from 11 at 03 UTC to 11 at 12 UTC
Visibility: 1200 m
at a height of 400 ft
snow

TAF: ESNU 110230Z 1103/1112 19020G35KT 5000 -SN BKN015 TEMPO 1103/1112 1200 SN VV004

Weather observations and forecasts of more than 4000 airports (METAR and TAF reports).

The available stations are represented by yellow and red dots on the map.

Hover mouse over dot to see the name of the station.

Then click to see weather observations and forecasts.

To change the map : click on the green buttons with a black cross to zoom in, on the green button with a dash to zoom out, or on the green arrows for adjacent maps.


METAR-TAF: